• Join FlightAware (Why Join?)
  • Login
  • US Flag 
11:44AM EDT


 

Airport Tracker/Info


-or-


 

Live Flight TrackerFlight Track Log ✈ DAL1937 ✈ 20-Jul-2013 ✈ KBWI - KDTW

Flight Track Log - Related Links

Times and Time Zones

All times are in EDT time to prevent confusion due to time zone crossing. See the DAL1937 flight status page for this flight to view local times or setup timezone preferences in your user account.

Time Position Orientation Groundspeed Altitude Reporting Facility
EDT Latitude Longitude Course Direction KTS MPH feet Rate Location/Type
06:49AM 39.1833 -76.7500 251° West 178 205 2,400  Level Potomac TRACON
06:50AM 39.2000 -76.8333 284° West 252 290 4,500 2,520 Climbing Potomac TRACON
06:51AM 39.0630 -77.1825 254° West  Level FlightAware Approximate
06:51AM 39.2167 -76.9333 282° West 267 307 7,500  Level Potomac TRACON
06:52AM 39.0226 -77.3576 254° West  Level FlightAware Approximate
06:52AM 39.2333 -77.0167 285° West 271 312 10,200  Level Potomac TRACON
06:53AM 38.9956 -77.4994 257° West  Level FlightAware Approximate
06:53AM 39.2167 -77.1000 256° West 281 323 12,800  Level Potomac TRACON
06:54AM 38.9636 -77.6393 251° West  Level FlightAware Approximate
06:54AM 39.1667 -77.1833 232° Southwest 296 341 14,900  Level Potomac TRACON
06:56AM 39.0889 -77.3031 230° Southwest 319 367 18,200 1,920 Climbing Washington Center
06:56AM 39.0622 -77.4094 252° West 313 360 19,800 1,440 Climbing Washington Center
06:58AM 39.0542 -77.5242 265° West 313 360 21,200 960 Climbing Washington Center
06:59AM 39.0519 -77.6631 269° West 343 395 21,800 540 Climbing Washington Center
07:00AM 39.0517 -77.7914 270° West 382 440 22,300 840 Climbing Washington Center
07:00AM 39.0511 -77.9411 270° West 407 468 23,500 1,140 Climbing Washington Center
07:02AM 39.0478 -78.0961 268° West 425 489 24,700 1,080 Climbing Washington Center
07:03AM 39.0467 -78.2508 270° West 430 495 25,800 1,020 Climbing Washington Center
07:04AM 39.0431 -78.4086 268° West 441 507 26,800 900 Climbing Washington Center
07:05AM 39.0603 -78.5642 278° West 441 507 27,700 900 Climbing Washington Center
07:05AM 39.0853 -78.7258 281° West 446 513 28,600 900 Climbing Washington Center
07:07AM 39.1081 -78.8844 281° West 452 520 29,600 1,080 Climbing Washington Center
07:08AM 39.1328 -79.0408 282° West 452 520 30,800 1,020 Climbing Washington Center
07:08AM 39.1408 -79.1992 274° West 452 520 31,700 1,200 Climbing Washington Center
07:10AM 39.1167 -79.3719 260° West 441 507 33,200 1,080 Climbing Washington Center
07:11AM 39.0950 -79.5258 260° West 441 507 34,000 840 Climbing Washington Center
07:12AM 39.0711 -79.6797 259° West 446 513 34,900 480 Climbing Washington Center
07:13AM 39.0469 -79.8333 259° West 446 513 35,000 60 Climbing Washington Center
07:13AM 39.0308 -79.9211 257° West 431 496 35,000  Level Indianapolis Center
07:14AM 39.0075 -80.0700 259° West 436 502 35,000 180 Level Indianapolis Center
07:15AM 38.9864 -80.2336 261° West 430 495 35,400 480 Climbing Indianapolis Center
07:16AM 38.9689 -80.3850 262° West 430 495 36,000 240 Climbing Indianapolis Center
07:17AM 38.9494 -80.5367 261° West 430 495 36,000  Level Indianapolis Center
07:18AM 38.9311 -80.6875 261° West 429 494 36,000  Level Indianapolis Center
07:19AM 38.9119 -80.8397 261° West 434 499 36,000  Level Indianapolis Center
07:20AM 38.8922 -80.9911 261° West 432 497 36,000  Level Indianapolis Center
07:21AM 38.8731 -81.1419 261° West 429 494 36,000  Level Indianapolis Center
07:22AM 38.8542 -81.2931 261° West 432 497 36,000  Level Indianapolis Center
07:23AM 38.8311 -81.4739 261° West 435 501 36,000  Level Indianapolis Center
07:24AM 38.8106 -81.6233 260° West 436 502 36,000  Level Indianapolis Center
07:25AM 38.7903 -81.7736 260° West 434 499 36,000  Level Indianapolis Center
07:26AM 38.7689 -81.9239 260° West 434 499 36,000  Level Indianapolis Center
07:27AM 38.7522 -82.0756 262° West 432 497 36,000  Level Indianapolis Center
07:28AM 38.7469 -82.2294 268° West 433 498 36,000  Level Indianapolis Center
07:29AM 38.7414 -82.3833 267° West 433 498 36,000  Level Indianapolis Center
07:30AM 38.7347 -82.5375 267° West 433 498 36,000  Level Indianapolis Center
07:31AM 38.7275 -82.7228 267° West 435 501 36,000  Level Indianapolis Center
07:33AM 38.7206 -82.8761 267° West 433 498 36,000  Level Indianapolis Center
07:34AM 38.7136 -83.0300 267° West 433 498 36,000  Level Indianapolis Center
07:35AM 38.7064 -83.1719 266° West 435 501 36,000  Level Indianapolis Center
07:36AM 38.6997 -83.3300 267° West 439 505 36,000  Level Indianapolis Center
07:37AM 38.6919 -83.4872 266° West 439 505 36,000  Level Indianapolis Center
07:38AM 38.6839 -83.6436 266° West 436 502 36,000  Level Indianapolis Center
07:39AM 38.6767 -83.8006 267° West 437 503 36,000  Level Indianapolis Center
07:40AM 38.6683 -83.9564 266° West 436 502 36,000  Level Indianapolis Center
07:41AM 38.6586 -84.1375 266° West 435 501 36,000  Level Indianapolis Center
07:42AM 38.6656 -84.2925 273° West 438 504 36,000  Level Indianapolis Center
07:43AM 38.7200 -84.4328 296° West 443 510 36,000  Level Indianapolis Center
07:44AM 38.7933 -84.5597 307° West 443 510 36,000  Level Indianapolis Center
07:45AM 38.8764 -84.6744 313° West 449 517 36,000  Level Indianapolis Center
07:46AM 38.9831 -84.7714 325° Northwest 453 521 36,000  Level Indianapolis Center
07:47AM 39.0833 -84.8661 324° Northwest 445 512 36,000  Level Indianapolis Center
07:48AM 39.1783 -84.9550 324° Northwest 446 513 36,000  Level Indianapolis Center
07:49AM 39.2792 -85.0475 325° Northwest 447 514 36,000  Level Indianapolis Center
07:50AM 39.3775 -85.1417 324° Northwest 444 511 36,000  Level Indianapolis Center
07:51AM 39.4753 -85.2347 324° Northwest 440 506 36,000  Level Indianapolis Center
07:52AM 39.6072 -85.3106 336° Northwest 455 524 36,000  Level Indianapolis Center
07:53AM 39.7358 -85.3022 North 466 536 36,000 -300 Level Indianapolis Center
07:54AM 39.8622 -85.2900 North 462 532 35,500 -780 Descending Indianapolis Center
07:55AM 39.9861 -85.2764 North 454 522 34,500 -960 Descending Indianapolis Center
07:56AM 40.1083 -85.2317 16° North 457 526 33,600 -960 Descending Indianapolis Center
07:57AM 40.2347 -85.1931 13° North 464 534 32,600 -1,020 Descending Indianapolis Center
07:58AM 40.3611 -85.1514 14° North 470 541 31,600 -960 Descending Indianapolis Center
07:59AM 40.4867 -85.1006 17° North 474 545 30,700 -840 Descending Indianapolis Center
08:00AM 40.6375 -85.0361 18° North 477 549 30,000 -360 Descending Indianapolis Center
08:01AM 40.7619 -84.9792 19° North 474 545 30,000  Level Indianapolis Center
08:02AM 40.8872 -84.9231 19° North 478 550 30,000  Level Indianapolis Center
08:03AM 41.0050 -84.8669 20° North 482 555 30,000  Level Indianapolis Center
08:04AM 41.1372 -84.8467 North 473 544 30,000  Level Indianapolis Center
08:05AM 41.2681 -84.8781 350° North 473 544 30,000 -1,320 Level Indianapolis Center
08:06AM 41.3772 -84.9594 331° Northwest 436 502 27,400 -3,060 Descending Indianapolis Center
08:07AM 41.4222 -85.0586 301° West 392 451 24,800 -2,460 Descending Cleveland Center
08:08AM 41.3961 -85.1283 243° Southwest 368 423 24,000 -720 Descending Chicago Center
08:09AM 41.3078 -85.1178 175° South 354 407 23,600 -1,440 Descending Chicago Center
08:10AM 41.3033 -84.9906 93° East 384 442 21,100 -1,620 Descending Chicago Center
08:11AM 41.3758 -84.8808 49° Northeast 401 461 20,400 -1,020 Descending Chicago Center
08:12AM 41.4517 -84.7669 48° Northeast 413 475 19,100 -1,260 Descending Chicago Center
08:13AM 41.5253 -84.6586 48° Northeast 400 460 17,900 -840 Descending Chicago Center
08:14AM 41.6122 -84.5283 48° Northeast 395 455 17,400 -420 Descending Chicago Center
08:15AM 41.6822 -84.4169 50° Northeast 393 452 17,100 -1,020 Descending Chicago Center
08:15AM 41.7086 -84.3411 65° Northeast 398 458 15,900 -2,040 Descending Cleveland Center
08:16AM 41.7403 -84.2622 62° Northeast 394 453 14,800 -1,560 Descending Cleveland Center
08:18AM 41.8294 -84.0314 63° Northeast 384 442 12,000 -960 Descending Chicago Center
08:19AM 41.9158 -83.9094 46° Northeast 398 458 12,000  Level Cleveland Center
08:21AM 42.0653 -83.7075 45° Northeast 389 448 12,000  Level Cleveland Center